メインページ
METAR-TAF:

METAR-TAF

空港 :

ヌアクショット, モーリタニア

ヌアクショット空港

緯度: 18-18-36N, 経度: 015-58-11W, 海抜: 3m

現時点の気象観測

当レポートは28分前の05:30(UTC)に作成
の風 6kt
気温 27°C
湿度 89%
気圧 1009 hPa
視程: 6000m

METAR: GQNO 200530Z 17006KT 6000 NSC 27/25 Q1009 NOSIG

時間: 05:58 (05:58 UTC)

予報

当レポートは58分前の05:00(UTC)に作成
予報は20日の 06時(UTC)から 21日の 12時(UTC)まで有効
の風 12kt
視程: 6000m
20日の 15時(UTC)から 20日の 17時(UTC)まで徐々に
西/北西の風 12kt
確率 30% :
20日の 18時(UTC)から 20日の 24時(UTC)まで一時的に
視程: 4000m
高度1000ftの雲は散在している
高度3500ftの雲はほとんどない, 積乱雲.
激しい雷雨, 雨

TAF: GQNO 200500Z 2006/2112 18012KT 6000 NSC BECMG 2015/2017 30012KT PROB30 TEMPO 2018/2024 4000 TSRA SCT010 FEW035CB

4,000以上の空港の気象観測と天気予報(METAR報とTAF報)

利用可能な観測所は地図上に黄色い丸と赤い丸で示す。

丸の上にカーソルを重ねると観測所名を参照できる。

次にクリックすると気象観測と天気予報を参照できる。

マップの切り替え:黒色「×」印の緑ボタンをクリックして拡大、「-」印の緑ボタンをクリックして縮小、緑色の三角印をクリックして隣りの地図に切り替え


METAR-TAF: